sensor_id;sensor_type;location;lat;lon;timestamp;temperature;humidity
10905;DHT22;5505;51.450;9.254;2023-12-07T00:00:58;2.00;99.90
10905;DHT22;5505;51.450;9.254;2023-12-07T00:03:44;2.00;99.90
10905;DHT22;5505;51.450;9.254;2023-12-07T00:06:31;1.90;99.90
10905;DHT22;5505;51.450;9.254;2023-12-07T00:09:18;1.90;99.90
10905;DHT22;5505;51.450;9.254;2023-12-07T00:12:05;2.10;99.90
10905;DHT22;5505;51.450;9.254;2023-12-07T00:14:54;1.90;99.90
10905;DHT22;5505;51.450;9.254;2023-12-07T00:17:41;1.90;99.90
10905;DHT22;5505;51.450;9.254;2023-12-07T00:20:28;1.90;99.90
10905;DHT22;5505;51.450;9.254;2023-12-07T00:23:15;1.90;99.90
10905;DHT22;5505;51.450;9.254;2023-12-07T00:26:03;3.00;99.90
10905;DHT22;5505;51.450;9.254;2023-12-07T00:28:50;1.90;99.90
10905;DHT22;5505;51.450;9.254;2023-12-07T00:31:38;1.80;99.90
10905;DHT22;5505;51.450;9.254;2023-12-07T00:34:25;1.90;99.90
10905;DHT22;5505;51.450;9.254;2023-12-07T00:37:12;1.90;99.90
10905;DHT22;5505;51.450;9.254;2023-12-07T00:39:59;1.80;99.90
10905;DHT22;5505;51.450;9.254;2023-12-07T00:42:46;1.80;99.90
10905;DHT22;5505;51.450;9.254;2023-12-07T00:45:33;1.80;99.90
10905;DHT22;5505;51.450;9.254;2023-12-07T00:48:21;1.90;99.90
10905;DHT22;5505;51.450;9.254;2023-12-07T00:51:08;1.90;99.90
10905;DHT22;5505;51.450;9.254;2023-12-07T00:53:56;1.80;99.90
10905;DHT22;5505;51.450;9.254;2023-12-07T00:56:43;1.80;99.90
10905;DHT22;5505;51.450;9.254;2023-12-07T00:59:30;3.70;99.90
10905;DHT22;5505;51.450;9.254;2023-12-07T01:02:19;2.40;99.90
10905;DHT22;5505;51.450;9.254;2023-12-07T01:05:07;1.90;99.90
10905;DHT22;5505;51.450;9.254;2023-12-07T01:07:55;1.90;99.90
10905;DHT22;5505;51.450;9.254;2023-12-07T01:10:42;2.00;99.90
10905;DHT22;5505;51.450;9.254;2023-12-07T01:13:29;2.80;99.90
10905;DHT22;5505;51.450;9.254;2023-12-07T01:16:16;2.10;99.90
10905;DHT22;5505;51.450;9.254;2023-12-07T01:19:02;0.50;99.90
10905;DHT22;5505;51.450;9.254;2023-12-07T01:21:51;2.20;99.90
10905;DHT22;5505;51.450;9.254;2023-12-07T01:24:37;2.20;99.90
10905;DHT22;5505;51.450;9.254;2023-12-07T01:27:24;2.20;99.90
10905;DHT22;5505;51.450;9.254;2023-12-07T01:30:11;3.10;99.90
10905;DHT22;5505;51.450;9.254;2023-12-07T01:32:58;2.10;99.90
10905;DHT22;5505;51.450;9.254;2023-12-07T01:35:45;2.10;99.90
10905;DHT22;5505;51.450;9.254;2023-12-07T01:38:33;2.10;99.90
10905;DHT22;5505;51.450;9.254;2023-12-07T01:41:20;2.00;99.90
10905;DHT22;5505;51.450;9.254;2023-12-07T01:44:07;2.00;99.90
10905;DHT22;5505;51.450;9.254;2023-12-07T01:46:54;3.50;99.90
10905;DHT22;5505;51.450;9.254;2023-12-07T01:49:41;1.90;99.90
10905;DHT22;5505;51.450;9.254;2023-12-07T01:52:29;3.60;99.90
10905;DHT22;5505;51.450;9.254;2023-12-07T01:55:17;2.80;99.90
10905;DHT22;5505;51.450;9.254;2023-12-07T01:58:05;1.70;99.90
10905;DHT22;5505;51.450;9.254;2023-12-07T02:00:52;1.60;99.90
10905;DHT22;5505;51.450;9.254;2023-12-07T02:03:40;1.60;99.90
10905;DHT22;5505;51.450;9.254;2023-12-07T02:06:27;1.40;99.90
10905;DHT22;5505;51.450;9.254;2023-12-07T02:09:14;1.40;99.90
10905;DHT22;5505;51.450;9.254;2023-12-07T02:12:03;2.90;99.90
10905;DHT22;5505;51.450;9.254;2023-12-07T02:14:50;1.30;99.90
10905;DHT22;5505;51.450;9.254;2023-12-07T02:17:43;1.30;99.90
10905;DHT22;5505;51.450;9.254;2023-12-07T02:20:36;3.00;99.90
10905;DHT22;5505;51.450;9.254;2023-12-07T02:23:25;2.00;99.90
10905;DHT22;5505;51.450;9.254;2023-12-07T02:29:41;1.30;99.90
10905;DHT22;5505;51.450;9.254;2023-12-07T02:32:28;1.20;99.90
10905;DHT22;5505;51.450;9.254;2023-12-07T02:35:15;1.30;99.90
10905;DHT22;5505;51.450;9.254;2023-12-07T02:38:02;1.30;99.90
10905;DHT22;5505;51.450;9.254;2023-12-07T02:40:50;2.10;99.90
10905;DHT22;5505;51.450;9.254;2023-12-07T02:43:37;1.30;99.90
10905;DHT22;5505;51.450;9.254;2023-12-07T02:46:26;1.30;99.90
10905;DHT22;5505;51.450;9.254;2023-12-07T02:49:13;1.30;99.90
10905;DHT22;5505;51.450;9.254;2023-12-07T02:52:00;1.30;99.90
10905;DHT22;5505;51.450;9.254;2023-12-07T02:54:47;1.30;99.90
10905;DHT22;5505;51.450;9.254;2023-12-07T02:57:34;1.30;99.90
10905;DHT22;5505;51.450;9.254;2023-12-07T03:00:21;1.30;99.90
10905;DHT22;5505;51.450;9.254;2023-12-07T03:03:09;1.30;99.90
10905;DHT22;5505;51.450;9.254;2023-12-07T03:05:56;1.30;99.90
10905;DHT22;5505;51.450;9.254;2023-12-07T03:08:42;1.30;99.90
10905;DHT22;5505;51.450;9.254;2023-12-07T03:11:29;1.20;99.90
10905;DHT22;5505;51.450;9.254;2023-12-07T03:14:16;1.20;99.90
10905;DHT22;5505;51.450;9.254;2023-12-07T03:17:05;3.20;99.90
10905;DHT22;5505;51.450;9.254;2023-12-07T03:19:53;1.40;99.90
10905;DHT22;5505;51.450;9.254;2023-12-07T03:22:40;1.40;99.90
10905;DHT22;5505;51.450;9.254;2023-12-07T03:25:27;1.40;99.90
10905;DHT22;5505;51.450;9.254;2023-12-07T03:28:14;1.50;99.90
10905;DHT22;5505;51.450;9.254;2023-12-07T03:31:01;1.40;99.90
10905;DHT22;5505;51.450;9.254;2023-12-07T03:33:48;1.40;99.90
10905;DHT22;5505;51.450;9.254;2023-12-07T03:36:36;1.40;99.90
10905;DHT22;5505;51.450;9.254;2023-12-07T03:39:24;1.80;99.90
10905;DHT22;5505;51.450;9.254;2023-12-07T03:42:11;1.40;99.90
10905;DHT22;5505;51.450;9.254;2023-12-07T03:44:58;2.10;99.90
10905;DHT22;5505;51.450;9.254;2023-12-07T03:47:45;1.40;99.90
10905;DHT22;5505;51.450;9.254;2023-12-07T03:50:31;1.40;99.90
10905;DHT22;5505;51.450;9.254;2023-12-07T03:53:20;1.40;99.90
10905;DHT22;5505;51.450;9.254;2023-12-07T03:56:07;1.30;99.90
10905;DHT22;5505;51.450;9.254;2023-12-07T03:58:54;1.30;99.90
10905;DHT22;5505;51.450;9.254;2023-12-07T04:01:42;1.40;99.90
10905;DHT22;5505;51.450;9.254;2023-12-07T04:04:29;1.30;99.90
10905;DHT22;5505;51.450;9.254;2023-12-07T04:07:15;1.30;99.90
10905;DHT22;5505;51.450;9.254;2023-12-07T04:10:04;3.00;99.90
10905;DHT22;5505;51.450;9.254;2023-12-07T04:12:52;1.40;99.90
10905;DHT22;5505;51.450;9.254;2023-12-07T04:15:39;2.90;99.90
10905;DHT22;5505;51.450;9.254;2023-12-07T04:18:26;1.30;99.90
10905;DHT22;5505;51.450;9.254;2023-12-07T04:21:13;1.40;99.90
10905;DHT22;5505;51.450;9.254;2023-12-07T04:23:59;2.90;99.90
10905;DHT22;5505;51.450;9.254;2023-12-07T04:26:47;1.40;99.90
10905;DHT22;5505;51.450;9.254;2023-12-07T04:29:35;1.60;99.90
10905;DHT22;5505;51.450;9.254;2023-12-07T04:32:22;1.40;99.90
10905;DHT22;5505;51.450;9.254;2023-12-07T04:35:09;1.40;99.90
10905;DHT22;5505;51.450;9.254;2023-12-07T04:37:56;2.80;99.90
10905;DHT22;5505;51.450;9.254;2023-12-07T04:40:43;1.40;99.90
10905;DHT22;5505;51.450;9.254;2023-12-07T04:43:31;1.50;99.90
10905;DHT22;5505;51.450;9.254;2023-12-07T04:46:18;1.50;99.90
10905;DHT22;5505;51.450;9.254;2023-12-07T04:49:05;1.40;99.90
10905;DHT22;5505;51.450;9.254;2023-12-07T04:51:52;1.40;99.90
10905;DHT22;5505;51.450;9.254;2023-12-07T04:54:39;1.60;99.90
10905;DHT22;5505;51.450;9.254;2023-12-07T04:57:26;1.50;99.90
10905;DHT22;5505;51.450;9.254;2023-12-07T05:00:15;1.30;99.90
10905;DHT22;5505;51.450;9.254;2023-12-07T05:03:02;1.30;99.90
10905;DHT22;5505;51.450;9.254;2023-12-07T05:05:49;3.10;99.90
10905;DHT22;5505;51.450;9.254;2023-12-07T05:08:36;1.30;99.90
10905;DHT22;5505;51.450;9.254;2023-12-07T05:11:23;1.30;99.90
10905;DHT22;5505;51.450;9.254;2023-12-07T05:14:09;1.30;99.90
10905;DHT22;5505;51.450;9.254;2023-12-07T05:16:58;1.20;99.90
10905;DHT22;5505;51.450;9.254;2023-12-07T05:19:44;1.20;99.90
10905;DHT22;5505;51.450;9.254;2023-12-07T05:22:32;1.60;99.90
10905;DHT22;5505;51.450;9.254;2023-12-07T05:25:18;1.30;99.90
10905;DHT22;5505;51.450;9.254;2023-12-07T05:28:05;1.50;99.90
10905;DHT22;5505;51.450;9.254;2023-12-07T05:30:52;1.20;99.90
10905;DHT22;5505;51.450;9.254;2023-12-07T05:33:40;1.20;99.90
10905;DHT22;5505;51.450;9.254;2023-12-07T05:36:27;1.20;99.90
10905;DHT22;5505;51.450;9.254;2023-12-07T05:39:14;1.20;99.90
10905;DHT22;5505;51.450;9.254;2023-12-07T05:42:03;1.60;99.90
10905;DHT22;5505;51.450;9.254;2023-12-07T05:44:50;1.20;99.90
10905;DHT22;5505;51.450;9.254;2023-12-07T05:47:37;1.20;99.90
10905;DHT22;5505;51.450;9.254;2023-12-07T05:50:25;1.10;99.90
10905;DHT22;5505;51.450;9.254;2023-12-07T05:53:12;1.20;99.90
10905;DHT22;5505;51.450;9.254;2023-12-07T05:56:00;1.30;99.90
10905;DHT22;5505;51.450;9.254;2023-12-07T05:58:47;1.30;99.90
10905;DHT22;5505;51.450;9.254;2023-12-07T06:01:34;1.30;99.90
10905;DHT22;5505;51.450;9.254;2023-12-07T06:04:21;1.30;99.90
10905;DHT22;5505;51.450;9.254;2023-12-07T06:07:09;1.30;99.90
10905;DHT22;5505;51.450;9.254;2023-12-07T06:09:58;1.30;99.90
10905;DHT22;5505;51.450;9.254;2023-12-07T06:12:45;1.50;99.90
10905;DHT22;5505;51.450;9.254;2023-12-07T06:15:32;1.30;99.90
10905;DHT22;5505;51.450;9.254;2023-12-07T06:18:19;1.30;99.90
10905;DHT22;5505;51.450;9.254;2023-12-07T06:21:06;1.30;99.90
10905;DHT22;5505;51.450;9.254;2023-12-07T06:23:55;1.30;99.90
10905;DHT22;5505;51.450;9.254;2023-12-07T06:26:41;1.40;99.90
10905;DHT22;5505;51.450;9.254;2023-12-07T06:29:28;1.40;99.90
10905;DHT22;5505;51.450;9.254;2023-12-07T06:32:15;1.60;99.90
10905;DHT22;5505;51.450;9.254;2023-12-07T06:35:02;1.50;99.90
10905;DHT22;5505;51.450;9.254;2023-12-07T06:37:50;1.50;99.90
10905;DHT22;5505;51.450;9.254;2023-12-07T06:40:38;2.80;99.90
10905;DHT22;5505;51.450;9.254;2023-12-07T06:43:25;1.40;99.90
10905;DHT22;5505;51.450;9.254;2023-12-07T06:46:12;1.40;99.90
10905;DHT22;5505;51.450;9.254;2023-12-07T06:48:59;1.40;99.90
10905;DHT22;5505;51.450;9.254;2023-12-07T06:51:46;1.40;99.90
10905;DHT22;5505;51.450;9.254;2023-12-07T06:54:33;1.30;99.90
10905;DHT22;5505;51.450;9.254;2023-12-07T06:57:21;1.30;99.90
10905;DHT22;5505;51.450;9.254;2023-12-07T07:00:08;1.20;99.90
10905;DHT22;5505;51.450;9.254;2023-12-07T07:02:57;1.20;99.90
10905;DHT22;5505;51.450;9.254;2023-12-07T07:05:44;1.20;99.90
10905;DHT22;5505;51.450;9.254;2023-12-07T07:08:31;1.20;99.90
10905;DHT22;5505;51.450;9.254;2023-12-07T07:11:18;1.20;99.90
10905;DHT22;5505;51.450;9.254;2023-12-07T07:14:06;1.20;99.90
10905;DHT22;5505;51.450;9.254;2023-12-07T07:16:53;1.60;99.90
10905;DHT22;5505;51.450;9.254;2023-12-07T07:19:40;1.30;99.90
10905;DHT22;5505;51.450;9.254;2023-12-07T07:22:27;1.30;99.90
10905;DHT22;5505;51.450;9.254;2023-12-07T07:25:14;1.30;99.90
10905;DHT22;5505;51.450;9.254;2023-12-07T07:28:01;1.30;99.90
10905;DHT22;5505;51.450;9.254;2023-12-07T07:30:50;1.40;99.90
10905;DHT22;5505;51.450;9.254;2023-12-07T07:33:38;1.40;99.90
10905;DHT22;5505;51.450;9.254;2023-12-07T07:36:25;1.40;99.90
10905;DHT22;5505;51.450;9.254;2023-12-07T07:39:12;1.40;99.90
10905;DHT22;5505;51.450;9.254;2023-12-07T07:41:59;1.40;99.90
10905;DHT22;5505;51.450;9.254;2023-12-07T07:44:46;1.40;99.90
10905;DHT22;5505;51.450;9.254;2023-12-07T07:47:34;2.80;99.90
10905;DHT22;5505;51.450;9.254;2023-12-07T07:50:21;1.60;99.90
10905;DHT22;5505;51.450;9.254;2023-12-07T07:53:08;1.60;99.90
10905;DHT22;5505;51.450;9.254;2023-12-07T07:55:55;1.70;99.90
10905;DHT22;5505;51.450;9.254;2023-12-07T07:58:42;1.60;99.90
10905;DHT22;5505;51.450;9.254;2023-12-07T08:01:28;1.80;99.90
10905;DHT22;5505;51.450;9.254;2023-12-07T08:04:17;2.40;99.90
10905;DHT22;5505;51.450;9.254;2023-12-07T08:07:04;0.70;99.90
10905;DHT22;5505;51.450;9.254;2023-12-07T08:09:50;1.60;99.90
10905;DHT22;5505;51.450;9.254;2023-12-07T08:12:39;3.00;99.90
10905;DHT22;5505;51.450;9.254;2023-12-07T08:15:26;1.70;99.90
10905;DHT22;5505;51.450;9.254;2023-12-07T08:18:13;1.80;99.90
10905;DHT22;5505;51.450;9.254;2023-12-07T08:21:02;1.70;99.90
10905;DHT22;5505;51.450;9.254;2023-12-07T08:23:49;1.70;99.90
10905;DHT22;5505;51.450;9.254;2023-12-07T08:26:36;1.70;99.90
10905;DHT22;5505;51.450;9.254;2023-12-07T08:29:23;1.70;99.90
10905;DHT22;5505;51.450;9.254;2023-12-07T08:32:10;1.70;99.90
10905;DHT22;5505;51.450;9.254;2023-12-07T08:34:57;1.70;99.90
10905;DHT22;5505;51.450;9.254;2023-12-07T08:37:45;1.70;99.90
10905;DHT22;5505;51.450;9.254;2023-12-07T08:40:32;1.80;99.90
10905;DHT22;5505;51.450;9.254;2023-12-07T08:43:21;2.90;99.90
10905;DHT22;5505;51.450;9.254;2023-12-07T08:46:08;1.70;99.90
10905;DHT22;5505;51.450;9.254;2023-12-07T08:48:55;1.80;99.90
10905;DHT22;5505;51.450;9.254;2023-12-07T08:51:42;1.80;99.90
10905;DHT22;5505;51.450;9.254;2023-12-07T08:54:30;2.20;99.90
10905;DHT22;5505;51.450;9.254;2023-12-07T08:57:17;1.70;99.90
10905;DHT22;5505;51.450;9.254;2023-12-07T09:00:06;1.80;99.90
10905;DHT22;5505;51.450;9.254;2023-12-07T09:02:53;1.90;99.90
10905;DHT22;5505;51.450;9.254;2023-12-07T09:05:39;1.80;99.90
10905;DHT22;5505;51.450;9.254;2023-12-07T09:08:26;1.90;99.90
10905;DHT22;5505;51.450;9.254;2023-12-07T09:11:15;1.90;99.90
10905;DHT22;5505;51.450;9.254;2023-12-07T09:14:01;2.00;99.90
10905;DHT22;5505;51.450;9.254;2023-12-07T09:16:48;2.00;99.90
10905;DHT22;5505;51.450;9.254;2023-12-07T09:19:35;2.00;99.90
10905;DHT22;5505;51.450;9.254;2023-12-07T09:22:22;2.00;99.90
10905;DHT22;5505;51.450;9.254;2023-12-07T09:25:09;2.10;99.90
10905;DHT22;5505;51.450;9.254;2023-12-07T09:27:57;2.00;99.90
10905;DHT22;5505;51.450;9.254;2023-12-07T09:30:45;2.50;99.90
10905;DHT22;5505;51.450;9.254;2023-12-07T09:33:32;2.10;99.90
10905;DHT22;5505;51.450;9.254;2023-12-07T09:36:19;2.10;99.90
10905;DHT22;5505;51.450;9.254;2023-12-07T09:39:06;2.70;99.90
10905;DHT22;5505;51.450;9.254;2023-12-07T09:41:55;2.30;99.90
10905;DHT22;5505;51.450;9.254;2023-12-07T09:44:43;2.30;99.90
10905;DHT22;5505;51.450;9.254;2023-12-07T09:47:31;2.30;99.90
10905;DHT22;5505;51.450;9.254;2023-12-07T09:50:19;2.30;99.90
10905;DHT22;5505;51.450;9.254;2023-12-07T09:53:08;2.40;99.90
10905;DHT22;5505;51.450;9.254;2023-12-07T09:55:55;2.30;99.90
10905;DHT22;5505;51.450;9.254;2023-12-07T09:58:42;2.40;99.90
10905;DHT22;5505;51.450;9.254;2023-12-07T10:01:31;2.50;99.90
10905;DHT22;5505;51.450;9.254;2023-12-07T10:04:22;2.60;99.90
10905;DHT22;5505;51.450;9.254;2023-12-07T10:07:11;2.70;99.90
10905;DHT22;5505;51.450;9.254;2023-12-07T10:09:58;2.70;99.90
10905;DHT22;5505;51.450;9.254;2023-12-07T10:12:46;2.70;99.90
10905;DHT22;5505;51.450;9.254;2023-12-07T10:15:33;2.90;99.90
10905;DHT22;5505;51.450;9.254;2023-12-07T10:18:24;3.40;99.90
10905;DHT22;5505;51.450;9.254;2023-12-07T10:21:11;2.80;99.90
10905;DHT22;5505;51.450;9.254;2023-12-07T10:23:58;2.80;99.90
10905;DHT22;5505;51.450;9.254;2023-12-07T10:26:46;2.90;99.90
10905;DHT22;5505;51.450;9.254;2023-12-07T10:29:35;2.90;99.90
10905;DHT22;5505;51.450;9.254;2023-12-07T10:32:22;2.90;99.90
10905;DHT22;5505;51.450;9.254;2023-12-07T10:35:10;2.90;99.90
10905;DHT22;5505;51.450;9.254;2023-12-07T10:37:57;3.00;99.90
10905;DHT22;5505;51.450;9.254;2023-12-07T10:40:46;4.90;99.90
10905;DHT22;5505;51.450;9.254;2023-12-07T10:43:37;3.30;99.90
10905;DHT22;5505;51.450;9.254;2023-12-07T10:46:24;3.60;99.90
10905;DHT22;5505;51.450;9.254;2023-12-07T10:49:17;3.50;99.90
10905;DHT22;5505;51.450;9.254;2023-12-07T10:52:07;3.60;99.90
10905;DHT22;5505;51.450;9.254;2023-12-07T10:55:02;3.60;99.90
10905;DHT22;5505;51.450;9.254;2023-12-07T10:57:52;4.60;99.90
10905;DHT22;5505;51.450;9.254;2023-12-07T11:00:42;3.60;99.90
10905;DHT22;5505;51.450;9.254;2023-12-07T11:03:32;3.60;99.90
10905;DHT22;5505;51.450;9.254;2023-12-07T11:06:19;3.70;99.90
10905;DHT22;5505;51.450;9.254;2023-12-07T11:09:10;3.70;99.90
10905;DHT22;5505;51.450;9.254;2023-12-07T11:12:05;3.70;99.90
10905;DHT22;5505;51.450;9.254;2023-12-07T11:14:53;3.70;99.90
10905;DHT22;5505;51.450;9.254;2023-12-07T11:17:54;4.50;99.90
10905;DHT22;5505;51.450;9.254;2023-12-07T11:20:43;3.70;99.90
10905;DHT22;5505;51.450;9.254;2023-12-07T11:23:31;5.10;99.90
10905;DHT22;5505;51.450;9.254;2023-12-07T11:26:22;4.90;99.90
10905;DHT22;5505;51.450;9.254;2023-12-07T11:29:08;3.80;99.90
10905;DHT22;5505;51.450;9.254;2023-12-07T11:31:56;3.80;99.90
10905;DHT22;5505;51.450;9.254;2023-12-07T11:34:43;3.80;99.90
10905;DHT22;5505;51.450;9.254;2023-12-07T11:38:04;3.90;99.90
10905;DHT22;5505;51.450;9.254;2023-12-07T11:40:54;4.00;99.90
10905;DHT22;5505;51.450;9.254;2023-12-07T11:43:42;4.00;99.90
10905;DHT22;5505;51.450;9.254;2023-12-07T11:46:32;5.00;99.90
10905;DHT22;5505;51.450;9.254;2023-12-07T11:49:21;4.10;99.90
10905;DHT22;5505;51.450;9.254;2023-12-07T11:52:15;4.10;99.90
10905;DHT22;5505;51.450;9.254;2023-12-07T11:55:02;4.10;99.90
10905;DHT22;5505;51.450;9.254;2023-12-07T11:57:50;4.00;99.90
10905;DHT22;5505;51.450;9.254;2023-12-07T12:00:39;4.00;99.90
10905;DHT22;5505;51.450;9.254;2023-12-07T12:03:27;3.90;99.90
10905;DHT22;5505;51.450;9.254;2023-12-07T12:06:14;3.80;99.90
10905;DHT22;5505;51.450;9.254;2023-12-07T12:09:00;3.80;99.90
10905;DHT22;5505;51.450;9.254;2023-12-07T12:11:47;4.10;99.90
10905;DHT22;5505;51.450;9.254;2023-12-07T12:14:34;5.20;99.90
10905;DHT22;5505;51.450;9.254;2023-12-07T12:17:23;3.70;99.90
10905;DHT22;5505;51.450;9.254;2023-12-07T12:20:10;3.60;99.90
10905;DHT22;5505;51.450;9.254;2023-12-07T12:23:02;3.50;99.90
10905;DHT22;5505;51.450;9.254;2023-12-07T12:25:49;3.50;99.90
10905;DHT22;5505;51.450;9.254;2023-12-07T12:28:36;3.40;99.90
10905;DHT22;5505;51.450;9.254;2023-12-07T12:31:28;3.30;99.90
10905;DHT22;5505;51.450;9.254;2023-12-07T12:34:16;5.00;99.90
10905;DHT22;5505;51.450;9.254;2023-12-07T12:37:03;3.30;99.90
10905;DHT22;5505;51.450;9.254;2023-12-07T12:39:52;4.60;99.90
10905;DHT22;5505;51.450;9.254;2023-12-07T12:42:39;3.10;99.90
10905;DHT22;5505;51.450;9.254;2023-12-07T12:45:26;3.10;99.90
10905;DHT22;5505;51.450;9.254;2023-12-07T12:48:13;3.60;99.90
10905;DHT22;5505;51.450;9.254;2023-12-07T12:51:09;3.00;99.90
10905;DHT22;5505;51.450;9.254;2023-12-07T12:53:56;3.00;99.90
10905;DHT22;5505;51.450;9.254;2023-12-07T12:56:45;2.90;99.90
10905;DHT22;5505;51.450;9.254;2023-12-07T12:59:32;4.40;99.90
10905;DHT22;5505;51.450;9.254;2023-12-07T13:02:19;2.70;99.90
10905;DHT22;5505;51.450;9.254;2023-12-07T13:05:07;2.90;99.90
10905;DHT22;5505;51.450;9.254;2023-12-07T13:07:55;2.60;99.90
10905;DHT22;5505;51.450;9.254;2023-12-07T14:17:24;1.70;99.90
10905;DHT22;5505;51.450;9.254;2023-12-07T14:20:11;2.40;99.90
10905;DHT22;5505;51.450;9.254;2023-12-07T14:22:59;1.70;99.90
10905;DHT22;5505;51.450;9.254;2023-12-07T14:25:49;1.70;99.90
10905;DHT22;5505;51.450;9.254;2023-12-07T14:28:37;1.80;99.90
10905;DHT22;5505;51.450;9.254;2023-12-07T14:31:23;2.70;99.90
10905;DHT22;5505;51.450;9.254;2023-12-07T14:34:12;1.60;99.90
10905;DHT22;5505;51.450;9.254;2023-12-07T14:37:00;1.60;99.90
10905;DHT22;5505;51.450;9.254;2023-12-07T14:39:48;1.60;99.90
10905;DHT22;5505;51.450;9.254;2023-12-07T14:42:35;1.60;99.90
10905;DHT22;5505;51.450;9.254;2023-12-07T14:45:22;1.50;99.90
10905;DHT22;5505;51.450;9.254;2023-12-07T14:48:09;2.60;99.90
10905;DHT22;5505;51.450;9.254;2023-12-07T14:50:58;1.40;99.90
10905;DHT22;5505;51.450;9.254;2023-12-07T14:53:45;1.50;99.90
10905;DHT22;5505;51.450;9.254;2023-12-07T14:56:32;1.50;99.90
10905;DHT22;5505;51.450;9.254;2023-12-07T14:59:20;1.40;99.90
10905;DHT22;5505;51.450;9.254;2023-12-07T15:02:07;1.20;99.90
10905;DHT22;5505;51.450;9.254;2023-12-07T15:04:56;1.20;99.90
10905;DHT22;5505;51.450;9.254;2023-12-07T15:07:44;2.00;99.90
10905;DHT22;5505;51.450;9.254;2023-12-07T15:10:31;0.90;99.90
10905;DHT22;5505;51.450;9.254;2023-12-07T15:13:18;0.80;99.90
10905;DHT22;5505;51.450;9.254;2023-12-07T15:16:06;0.80;99.90
10905;DHT22;5505;51.450;9.254;2023-12-07T15:18:53;0.70;99.90
10905;DHT22;5505;51.450;9.254;2023-12-07T15:21:40;0.70;99.90
10905;DHT22;5505;51.450;9.254;2023-12-07T15:24:31;0.50;99.90
10905;DHT22;5505;51.450;9.254;2023-12-07T15:27:17;0.40;99.90
10905;DHT22;5505;51.450;9.254;2023-12-07T15:30:06;0.30;99.90
10905;DHT22;5505;51.450;9.254;2023-12-07T15:32:55;0.20;99.90
10905;DHT22;5505;51.450;9.254;2023-12-07T15:35:42;0.20;99.90
10905;DHT22;5505;51.450;9.254;2023-12-07T15:38:29;0.20;99.90
10905;DHT22;5505;51.450;9.254;2023-12-07T15:41:18;0.20;99.90
10905;DHT22;5505;51.450;9.254;2023-12-07T15:44:05;0.20;99.90
10905;DHT22;5505;51.450;9.254;2023-12-07T15:46:52;0.20;99.90
10905;DHT22;5505;51.450;9.254;2023-12-07T15:49:39;0.20;99.90
10905;DHT22;5505;51.450;9.254;2023-12-07T15:52:27;0.20;99.90
10905;DHT22;5505;51.450;9.254;2023-12-07T15:55:14;0.20;99.90
10905;DHT22;5505;51.450;9.254;2023-12-07T15:58:03;0.10;99.90
10905;DHT22;5505;51.450;9.254;2023-12-07T16:00:51;0.10;99.90
10905;DHT22;5505;51.450;9.254;2023-12-07T16:03:38;0.10;99.90
10905;DHT22;5505;51.450;9.254;2023-12-07T16:06:25;0.10;99.90
10905;DHT22;5505;51.450;9.254;2023-12-07T16:09:12;0.10;99.90
10905;DHT22;5505;51.450;9.254;2023-12-07T16:12:00;0.10;99.90
10905;DHT22;5505;51.450;9.254;2023-12-07T16:14:49;0.10;99.90
10905;DHT22;5505;51.450;9.254;2023-12-07T16:17:41;0.10;99.90
10905;DHT22;5505;51.450;9.254;2023-12-07T16:20:28;0.00;99.90
10905;DHT22;5505;51.450;9.254;2023-12-07T16:23:15;-0.10;99.90
10905;DHT22;5505;51.450;9.254;2023-12-07T16:26:02;-0.20;99.90
10905;DHT22;5505;51.450;9.254;2023-12-07T16:28:49;-0.30;99.90
10905;DHT22;5505;51.450;9.254;2023-12-07T16:31:38;-0.40;99.90
10905;DHT22;5505;51.450;9.254;2023-12-07T16:34:25;-0.40;99.90
10905;DHT22;5505;51.450;9.254;2023-12-07T16:37:12;-0.40;99.90
10905;DHT22;5505;51.450;9.254;2023-12-07T16:39:59;-0.40;99.90
10905;DHT22;5505;51.450;9.254;2023-12-07T16:42:46;-0.40;99.90
10905;DHT22;5505;51.450;9.254;2023-12-07T16:45:35;-0.40;99.90
10905;DHT22;5505;51.450;9.254;2023-12-07T16:48:23;-0.40;99.90
10905;DHT22;5505;51.450;9.254;2023-12-07T16:51:11;-0.50;99.90
10905;DHT22;5505;51.450;9.254;2023-12-07T16:53:58;-0.50;99.90
10905;DHT22;5505;51.450;9.254;2023-12-07T16:56:45;-0.50;99.90
10905;DHT22;5505;51.450;9.254;2023-12-07T16:59:32;-0.50;99.90
10905;DHT22;5505;51.450;9.254;2023-12-07T17:02:19;-0.50;99.90
10905;DHT22;5505;51.450;9.254;2023-12-07T17:05:10;-0.50;99.90
10905;DHT22;5505;51.450;9.254;2023-12-07T17:07:57;-0.60;99.90
10905;DHT22;5505;51.450;9.254;2023-12-07T17:10:44;-0.60;99.90
10905;DHT22;5505;51.450;9.254;2023-12-07T17:13:31;-0.50;99.90
10905;DHT22;5505;51.450;9.254;2023-12-07T17:16:18;-0.60;99.90
10905;DHT22;5505;51.450;9.254;2023-12-07T17:19:05;-0.60;99.90
10905;DHT22;5505;51.450;9.254;2023-12-07T17:21:54;-0.60;99.90
10905;DHT22;5505;51.450;9.254;2023-12-07T17:24:41;-0.50;99.90
10905;DHT22;5505;51.450;9.254;2023-12-07T17:27:28;-0.50;99.90
10905;DHT22;5505;51.450;9.254;2023-12-07T17:30:15;-0.50;99.90
10905;DHT22;5505;51.450;9.254;2023-12-07T17:33:02;-0.60;99.90
10905;DHT22;5505;51.450;9.254;2023-12-07T17:35:49;-0.60;99.90
10905;DHT22;5505;51.450;9.254;2023-12-07T17:38:37;-0.60;99.90
10905;DHT22;5505;51.450;9.254;2023-12-07T17:41:25;-0.60;99.90
10905;DHT22;5505;51.450;9.254;2023-12-07T17:44:12;-0.70;99.90
10905;DHT22;5505;51.450;9.254;2023-12-07T17:46:59;-0.70;99.90
10905;DHT22;5505;51.450;9.254;2023-12-07T17:49:46;-0.80;99.90
10905;DHT22;5505;51.450;9.254;2023-12-07T17:52:33;-0.80;99.90
10905;DHT22;5505;51.450;9.254;2023-12-07T17:55:22;-0.80;99.90
10905;DHT22;5505;51.450;9.254;2023-12-07T17:58:09;-0.80;99.90
10905;DHT22;5505;51.450;9.254;2023-12-07T18:00:56;-0.90;99.90
10905;DHT22;5505;51.450;9.254;2023-12-07T18:03:43;-0.90;99.90
10905;DHT22;5505;51.450;9.254;2023-12-07T18:06:30;-1.00;99.90
10905;DHT22;5505;51.450;9.254;2023-12-07T18:09:17;-1.00;99.90
10905;DHT22;5505;51.450;9.254;2023-12-07T18:12:06;-1.00;99.90
10905;DHT22;5505;51.450;9.254;2023-12-07T18:14:53;-1.10;99.90
10905;DHT22;5505;51.450;9.254;2023-12-07T18:17:41;-1.10;99.90
10905;DHT22;5505;51.450;9.254;2023-12-07T18:20:28;-1.10;99.90
10905;DHT22;5505;51.450;9.254;2023-12-07T18:23:15;-1.10;99.90
10905;DHT22;5505;51.450;9.254;2023-12-07T18:26:02;-1.10;99.90
10905;DHT22;5505;51.450;9.254;2023-12-07T18:28:50;-1.10;99.90
10905;DHT22;5505;51.450;9.254;2023-12-07T18:31:37;-1.20;99.90
10905;DHT22;5505;51.450;9.254;2023-12-07T18:34:24;0.00;99.90
10905;DHT22;5505;51.450;9.254;2023-12-07T18:37:11;0.60;99.90
10905;DHT22;5505;51.450;9.254;2023-12-07T18:39:58;-1.20;99.90
10905;DHT22;5505;51.450;9.254;2023-12-07T18:42:45;-1.30;99.90
10905;DHT22;5505;51.450;9.254;2023-12-07T18:45:34;-1.30;99.90
10905;DHT22;5505;51.450;9.254;2023-12-07T18:48:21;-1.30;99.90
10905;DHT22;5505;51.450;9.254;2023-12-07T18:51:08;-1.30;99.90
10905;DHT22;5505;51.450;9.254;2023-12-07T18:53:55;-1.30;99.90
10905;DHT22;5505;51.450;9.254;2023-12-07T18:56:44;-1.20;99.90
10905;DHT22;5505;51.450;9.254;2023-12-07T18:59:31;-1.20;99.90
10905;DHT22;5505;51.450;9.254;2023-12-07T19:02:19;0.10;99.90
10905;DHT22;5505;51.450;9.254;2023-12-07T19:05:07;-1.20;99.90
10905;DHT22;5505;51.450;9.254;2023-12-07T19:07:54;-1.20;99.90
10905;DHT22;5505;51.450;9.254;2023-12-07T19:10:42;-1.20;99.90
10905;DHT22;5505;51.450;9.254;2023-12-07T19:13:30;-1.20;99.90
10905;DHT22;5505;51.450;9.254;2023-12-07T19:16:17;-1.20;99.90
10905;DHT22;5505;51.450;9.254;2023-12-07T19:19:05;-1.20;99.90
10905;DHT22;5505;51.450;9.254;2023-12-07T19:21:52;-1.20;99.90